createdAt,value
2018-08-18T00:00:21.098Z,73.3
2018-08-18T00:01:21.775Z,73.2
2018-08-18T00:02:22.455Z,72.9
2018-08-18T00:03:23.132Z,73.2
2018-08-18T00:04:23.810Z,73.6
2018-08-18T00:05:24.488Z,73.3
2018-08-18T00:06:25.167Z,74.1
2018-08-18T00:07:25.846Z,73.8
2018-08-18T00:08:26.523Z,73.7
2018-08-18T00:09:27.201Z,73.7
2018-08-18T00:10:27.880Z,74.0
2018-08-18T00:11:28.558Z,73.7
2018-08-18T00:12:29.236Z,74.1
2018-08-18T00:13:29.914Z,73.7
2018-08-18T00:14:30.636Z,74.4
2018-08-18T00:15:31.315Z,74.1
2018-08-18T00:16:31.993Z,74.7
2018-08-18T00:17:32.672Z,74.3
2018-08-18T00:18:33.348Z,74.1
2018-08-18T00:19:34.027Z,74.4
2018-08-18T00:20:34.705Z,74.8
2018-08-18T00:21:35.383Z,74.6
2018-08-18T00:22:36.064Z,74.6
2018-08-18T00:23:36.741Z,75.0
2018-08-18T00:24:37.418Z,74.9
2018-08-18T00:25:38.095Z,75.2
2018-08-18T00:26:38.774Z,75.3
2018-08-18T00:27:39.498Z,75.1
2018-08-18T00:28:40.174Z,74.9
2018-08-18T00:29:40.900Z,75.5
2018-08-18T00:30:41.575Z,75.6
2018-08-18T00:31:42.255Z,75.7
2018-08-18T00:32:42.936Z,75.5
2018-08-18T00:33:43.609Z,75.6
2018-08-18T00:34:44.287Z,75.5
2018-08-18T00:35:44.966Z,76.1
2018-08-18T00:36:45.643Z,76.1
2018-08-18T00:37:46.322Z,76.1
2018-08-18T00:38:46.999Z,76.5
2018-08-18T00:39:47.680Z,76.2
2018-08-18T00:40:48.355Z,76.4
2018-08-18T00:41:49.034Z,76.1
2018-08-18T00:42:49.709Z,76.4
2018-08-18T00:43:50.389Z,76.2
2018-08-18T00:44:51.066Z,76.6
2018-08-18T00:45:51.789Z,76.6
2018-08-18T00:46:52.466Z,76.1
2018-08-18T00:47:53.146Z,76.7
2018-08-18T00:48:53.823Z,76.5
2018-08-18T00:49:54.500Z,77.0
2018-08-18T00:50:55.225Z,77.0
2018-08-18T00:51:55.904Z,77.0
2018-08-18T00:52:56.583Z,77.0
2018-08-18T00:53:57.259Z,77.2
2018-08-18T00:54:57.936Z,77.0
2018-08-18T00:55:58.615Z,77.2
2018-08-18T00:56:59.295Z,77.4
2018-08-18T00:58:00.015Z,77.3
2018-08-18T00:59:00.692Z,77.3
2018-08-18T01:00:01.373Z,77.3
2018-08-18T01:01:02.051Z,77.2
2018-08-18T01:02:02.771Z,77.2
2018-08-18T01:03:03.449Z,77.3
2018-08-18T01:04:04.127Z,77.3
2018-08-18T01:05:04.805Z,77.3
2018-08-18T01:06:05.482Z,77.2
2018-08-18T01:07:06.159Z,77.5
2018-08-18T01:08:06.840Z,77.3
2018-08-18T01:09:07.515Z,77.1
2018-08-18T01:10:08.193Z,77.2
2018-08-18T01:11:08.967Z,77.8
2018-08-18T01:12:09.583Z,77.3
2018-08-18T01:13:10.251Z,76.9
2018-08-18T01:14:11.012Z,77.4
2018-08-18T01:15:11.582Z,77.5
2018-08-18T01:16:12.261Z,77.0
2018-08-18T01:17:12.937Z,77.0
2018-08-18T01:18:13.615Z,77.1
2018-08-18T01:19:14.291Z,77.1
2018-08-18T01:20:15.045Z,76.9
2018-08-18T01:21:15.664Z,76.3
2018-08-18T01:22:16.338Z,76.3
2018-08-18T01:23:17.017Z,76.3
2018-08-18T01:24:17.693Z,76.2
2018-08-18T01:25:18.375Z,76.4
2018-08-18T01:26:19.048Z,76.6
2018-08-18T01:27:19.726Z,76.1
2018-08-18T01:28:20.403Z,76.1
2018-08-18T01:29:21.080Z,76.1
2018-08-18T01:30:21.756Z,75.8
2018-08-18T01:31:22.434Z,75.8
2018-08-18T01:32:23.113Z,75.6
2018-08-18T01:33:23.790Z,75.6
2018-08-18T01:34:24.467Z,75.5
2018-08-18T01:35:25.144Z,75.7
2018-08-18T01:36:25.823Z,75.4
2018-08-18T01:37:26.500Z,75.5
2018-08-18T01:38:27.178Z,75.6
2018-08-18T01:39:27.856Z,75.6
2018-08-18T01:40:28.535Z,75.5
2018-08-18T01:41:29.212Z,75.6
2018-08-18T01:42:29.891Z,75.9
2018-08-18T01:43:30.566Z,75.9
2018-08-18T01:44:31.246Z,75.6
2018-08-18T01:45:31.921Z,75.6
2018-08-18T01:46:32.599Z,76.0
2018-08-18T01:47:33.276Z,75.6
2018-08-18T01:48:33.954Z,76.1
2018-08-18T01:49:34.635Z,75.2
2018-08-18T01:50:35.355Z,75.3
2018-08-18T01:51:36.032Z,75.0
2018-08-18T01:52:36.711Z,75.1
2018-08-18T01:53:37.389Z,75.3
2018-08-18T01:54:38.070Z,74.9
2018-08-18T01:55:38.745Z,75.1
2018-08-18T01:56:39.423Z,75.0
2018-08-18T01:57:40.100Z,74.8
2018-08-18T01:58:40.778Z,75.0
2018-08-18T01:59:41.455Z,74.9
2018-08-18T02:00:42.134Z,75.1
2018-08-18T02:01:42.812Z,74.8
2018-08-18T02:02:43.488Z,74.7
2018-08-18T02:03:44.166Z,74.6
2018-08-18T02:04:44.847Z,74.7
2018-08-18T02:05:45.522Z,74.5
2018-08-18T02:06:46.199Z,74.6
2018-08-18T02:07:46.876Z,74.5
2018-08-18T02:08:47.553Z,74.5
2018-08-18T02:09:48.233Z,74.6
2018-08-18T02:10:48.954Z,74.6
2018-08-18T02:11:49.631Z,74.5
2018-08-18T02:12:50.307Z,74.7
2018-08-18T02:13:50.987Z,74.6
2018-08-18T02:14:51.664Z,74.5
2018-08-18T02:15:52.342Z,74.5
2018-08-18T02:16:53.019Z,74.6
2018-08-18T02:17:53.698Z,74.8
2018-08-18T02:18:54.375Z,74.8
2018-08-18T02:19:55.072Z,74.4
2018-08-18T02:20:55.769Z,74.3
2018-08-18T02:21:56.446Z,74.7
2018-08-18T02:22:57.123Z,74.9
2018-08-18T02:23:57.802Z,74.8
2018-08-18T02:24:58.479Z,74.7
2018-08-18T02:25:59.158Z,74.6
2018-08-18T02:26:59.836Z,74.6
2018-08-18T02:28:00.519Z,74.9
2018-08-18T02:29:01.193Z,74.9
2018-08-18T02:30:01.879Z,74.5
2018-08-18T02:31:02.596Z,74.5
2018-08-18T02:32:03.271Z,74.7
2018-08-18T02:33:03.951Z,74.5
2018-08-18T02:34:04.628Z,74.7
2018-08-18T02:35:05.309Z,74.6
2018-08-18T02:36:06.031Z,74.6
2018-08-18T02:37:06.707Z,74.8
2018-08-18T02:38:07.384Z,74.8
2018-08-18T02:39:08.064Z,74.8
2018-08-18T02:40:08.757Z,74.4
2018-08-18T02:41:09.419Z,74.6
2018-08-18T02:42:10.146Z,74.8
2018-08-18T02:43:10.827Z,74.3
2018-08-18T02:44:11.548Z,74.4
2018-08-18T02:45:12.227Z,74.0
2018-08-18T02:46:12.906Z,74.1
2018-08-18T02:47:13.584Z,73.9
2018-08-18T02:48:14.263Z,73.9
2018-08-18T02:49:14.940Z,74.0
2018-08-18T02:50:15.617Z,74.2
2018-08-18T02:51:16.294Z,73.9
2018-08-18T02:52:16.977Z,74.2
2018-08-18T02:53:17.651Z,74.2
2018-08-18T02:54:18.329Z,74.2
2018-08-18T02:55:19.008Z,74.2
2018-08-18T02:56:19.685Z,74.4
2018-08-18T02:57:20.362Z,74.3
2018-08-18T02:58:21.042Z,74.3
2018-08-18T02:59:21.764Z,74.9
2018-08-18T03:00:22.442Z,74.5
2018-08-18T03:01:23.120Z,74.7
2018-08-18T03:02:23.796Z,74.6
2018-08-18T03:03:24.475Z,74.6
2018-08-18T03:04:25.153Z,74.5
2018-08-18T03:05:25.831Z,74.7
2018-08-18T03:06:26.509Z,74.7
2018-08-18T03:07:27.188Z,74.5
2018-08-18T03:08:27.863Z,74.7
2018-08-18T03:09:28.541Z,74.6
2018-08-18T03:10:29.220Z,74.6
2018-08-18T03:11:29.894Z,74.7
2018-08-18T03:12:30.574Z,74.7
2018-08-18T03:13:31.260Z,74.6
2018-08-18T03:14:31.929Z,74.5
2018-08-18T03:15:32.609Z,74.6
2018-08-18T03:16:33.290Z,74.6
2018-08-18T03:17:33.964Z,74.6
2018-08-18T03:18:34.640Z,74.6
2018-08-18T03:19:35.316Z,74.7
2018-08-18T03:20:35.996Z,74.8
2018-08-18T03:21:36.673Z,74.8
2018-08-18T03:22:37.353Z,74.9
2018-08-18T03:23:38.030Z,74.8
2018-08-18T03:24:38.709Z,75.1
2018-08-18T03:25:39.386Z,74.8
2018-08-18T03:26:40.064Z,75.0
2018-08-18T03:27:40.741Z,75.3
2018-08-18T03:28:41.420Z,75.3
2018-08-18T03:29:42.097Z,75.3
2018-08-18T03:30:42.776Z,75.2
2018-08-18T03:31:43.454Z,75.3
2018-08-18T03:32:44.137Z,75.4
2018-08-18T03:33:44.811Z,75.2
2018-08-18T03:34:45.488Z,75.3
2018-08-18T03:35:46.165Z,75.3
2018-08-18T03:36:46.848Z,75.4
2018-08-18T03:37:47.568Z,75.0
2018-08-18T03:38:48.246Z,75.0
2018-08-18T03:39:48.926Z,75.1
2018-08-18T03:40:49.603Z,75.1
2018-08-18T03:41:50.279Z,75.2
2018-08-18T03:42:50.960Z,75.0
2018-08-18T03:43:51.637Z,75.0
2018-08-18T03:44:52.316Z,75.0
2018-08-18T03:45:52.993Z,75.1
2018-08-18T03:46:53.669Z,75.2
2018-08-18T03:47:54.349Z,75.0
2018-08-18T03:48:55.025Z,75.0
2018-08-18T03:49:55.703Z,75.1
2018-08-18T03:50:56.380Z,75.2
2018-08-18T03:51:57.058Z,75.0
2018-08-18T03:52:57.736Z,75.1
2018-08-18T03:53:58.415Z,75.3
2018-08-18T03:54:59.093Z,75.2
2018-08-18T03:55:59.772Z,75.3
2018-08-18T03:57:00.450Z,75.2
2018-08-18T03:58:01.129Z,75.0
2018-08-18T03:59:01.810Z,75.6
2018-08-18T04:00:02.533Z,75.7
2018-08-18T04:01:03.211Z,75.5
2018-08-18T04:02:03.967Z,75.6
2018-08-18T04:03:04.577Z,75.9
2018-08-18T04:04:05.345Z,75.9
2018-08-18T04:05:06.023Z,75.6
2018-08-18T04:06:06.701Z,75.4
2018-08-18T04:07:07.381Z,75.9
2018-08-18T04:08:08.060Z,75.5
2018-08-18T04:09:08.775Z,76.1
2018-08-18T04:10:09.417Z,76.2
2018-08-18T04:11:10.099Z,76.1
2018-08-18T04:12:10.773Z,76.1
2018-08-18T04:13:11.454Z,76.1
2018-08-18T04:14:12.135Z,76.0
2018-08-18T04:15:12.815Z,76.1
2018-08-18T04:16:13.495Z,76.1
2018-08-18T04:17:14.175Z,76.2
2018-08-18T04:18:14.853Z,75.8
2018-08-18T04:19:15.534Z,75.9
2018-08-18T04:20:16.214Z,75.9
2018-08-18T04:21:16.891Z,76.0
2018-08-18T04:23:33.070Z,76.2
2018-08-18T04:24:33.747Z,76.1
2018-08-18T04:25:34.426Z,76.1
2018-08-18T04:26:35.103Z,75.7
2018-08-18T04:27:35.782Z,75.7
2018-08-18T04:28:36.459Z,75.8
2018-08-18T04:29:37.143Z,75.9
2018-08-18T04:30:37.820Z,75.5
2018-08-18T04:31:38.501Z,75.8
2018-08-18T04:32:39.223Z,75.8
2018-08-18T04:33:39.908Z,75.7
2018-08-18T04:34:40.625Z,75.5
2018-08-18T04:35:41.301Z,75.5
2018-08-18T04:36:41.982Z,75.5
2018-08-18T04:37:42.662Z,75.7
2018-08-18T04:38:43.339Z,75.6
2018-08-18T04:39:44.016Z,75.6
2018-08-18T04:40:44.698Z,75.7
2018-08-18T04:41:45.377Z,75.5
2018-08-18T04:42:46.058Z,75.8
2018-08-18T04:43:46.743Z,76.0
2018-08-18T04:44:47.463Z,75.2
2018-08-18T04:45:48.141Z,75.5
2018-08-18T04:46:48.820Z,74.8
2018-08-18T04:47:49.498Z,75.0
2018-08-18T04:48:50.176Z,75.3
2018-08-18T04:49:50.855Z,75.0
2018-08-18T04:50:51.533Z,75.0
2018-08-18T04:51:52.212Z,75.0
2018-08-18T04:52:52.891Z,75.2
2018-08-18T04:53:53.570Z,75.1
2018-08-18T04:54:54.249Z,75.3
2018-08-18T04:55:54.929Z,74.9
2018-08-18T04:56:55.707Z,74.9
2018-08-18T04:57:56.292Z,75.3
2018-08-18T04:58:56.968Z,75.3
2018-08-18T04:59:57.645Z,75.3
2018-08-18T05:00:58.325Z,75.0
2018-08-18T05:01:59.005Z,75.0
2018-08-18T05:02:59.692Z,75.0
2018-08-18T05:04:00.362Z,75.1
2018-08-18T05:05:01.049Z,74.8
2018-08-18T05:06:01.721Z,74.8
2018-08-18T05:07:02.403Z,74.6
2018-08-18T05:08:03.083Z,74.7
2018-08-18T05:09:03.762Z,74.6
2018-08-18T05:10:04.488Z,74.5
2018-08-18T05:11:05.168Z,74.8
2018-08-18T05:12:05.847Z,74.4
2018-08-18T05:13:06.531Z,74.5
2018-08-18T05:14:07.212Z,74.7
2018-08-18T05:15:07.894Z,74.3
2018-08-18T05:16:08.585Z,74.2
2018-08-18T05:17:09.268Z,73.8
2018-08-18T05:18:09.948Z,73.9
2018-08-18T05:19:10.641Z,74.0
2018-08-18T05:20:11.311Z,73.7
2018-08-18T05:21:11.992Z,73.6
2018-08-18T05:22:12.673Z,73.5
2018-08-18T05:23:13.355Z,73.2
2018-08-18T05:24:14.035Z,73.4
2018-08-18T05:25:14.720Z,73.5
2018-08-18T05:26:15.398Z,73.6
2018-08-18T05:27:16.077Z,73.5
2018-08-18T05:28:16.763Z,73.7
2018-08-18T05:29:17.486Z,73.2
2018-08-18T05:30:18.169Z,73.1
2018-08-18T05:31:18.889Z,72.9
2018-08-18T05:32:19.574Z,73.4
2018-08-18T05:33:20.253Z,73.3
2018-08-18T05:34:20.948Z,73.7
2018-08-18T05:35:21.617Z,73.3
2018-08-18T05:36:22.335Z,73.3
2018-08-18T05:37:22.981Z,73.3
2018-08-18T05:38:23.664Z,73.3
2018-08-18T05:39:24.345Z,72.5
2018-08-18T05:40:25.032Z,72.9
2018-08-18T05:41:25.714Z,72.7
2018-08-18T05:42:26.393Z,72.7
2018-08-18T05:43:27.074Z,72.7
2018-08-18T05:44:27.763Z,72.7
2018-08-18T05:45:28.484Z,72.7
2018-08-18T05:46:29.165Z,72.6
2018-08-18T05:47:29.880Z,72.3
2018-08-18T05:48:30.530Z,72.1
2018-08-18T05:49:31.212Z,72.1
2018-08-18T05:50:31.906Z,72.1
2018-08-18T05:51:32.621Z,72.6
2018-08-18T05:52:33.346Z,72.1
2018-08-18T05:53:34.029Z,72.0
2018-08-18T05:54:34.712Z,71.4
2018-08-18T05:55:35.394Z,71.4
2018-08-18T05:56:36.076Z,71.3
2018-08-18T05:57:36.759Z,71.3
2018-08-18T05:58:37.442Z,71.2
2018-08-18T05:59:38.153Z,70.5
2018-08-18T06:00:38.813Z,70.7
2018-08-18T06:01:39.537Z,70.6
2018-08-18T06:02:40.220Z,70.5
2018-08-18T06:03:40.903Z,70.4
2018-08-18T06:04:41.587Z,70.2
2018-08-18T06:05:42.282Z,69.5
2018-08-18T06:06:42.955Z,69.7
2018-08-18T06:07:43.635Z,69.2
2018-08-18T06:08:44.319Z,68.7
2018-08-18T06:09:45.001Z,68.4
2018-08-18T06:10:45.693Z,68.3
2018-08-18T06:11:46.367Z,68.0
2018-08-18T06:12:47.050Z,67.8
2018-08-18T06:13:47.735Z,67.7
2018-08-18T06:14:48.417Z,67.3
2018-08-18T06:15:49.125Z,67.0
2018-08-18T06:16:49.829Z,66.7
2018-08-18T06:17:50.516Z,66.7
2018-08-18T06:18:51.239Z,66.2
2018-08-18T06:19:51.924Z,66.1
2018-08-18T06:20:52.608Z,65.6
2018-08-18T06:21:53.290Z,65.6
2018-08-18T06:22:53.975Z,65.7
2018-08-18T06:23:54.662Z,65.2
2018-08-18T06:24:55.386Z,64.5
2018-08-18T06:25:56.070Z,64.4
2018-08-18T06:26:56.755Z,63.9
2018-08-18T06:27:57.438Z,63.0
2018-08-18T06:28:58.124Z,62.7
2018-08-18T06:29:58.853Z,62.1
2018-08-18T06:30:59.534Z,62.0
2018-08-18T06:32:00.221Z,61.8
2018-08-18T06:33:00.905Z,61.3
2018-08-18T06:34:01.589Z,61.5
2018-08-18T06:35:02.355Z,61.5
2018-08-18T06:36:02.996Z,60.6
2018-08-18T06:37:03.680Z,60.9
2018-08-18T06:38:04.366Z,60.1
2018-08-18T06:39:05.052Z,60.0
2018-08-18T06:40:05.738Z,60.1
2018-08-18T06:41:06.497Z,59.7
2018-08-18T06:42:07.184Z,59.8
2018-08-18T06:43:07.869Z,59.7
2018-08-18T06:44:08.555Z,59.9
2018-08-18T06:45:09.239Z,59.5
2018-08-18T06:46:09.929Z,59.1
2018-08-18T06:47:10.610Z,59.3
2018-08-18T06:48:11.294Z,59.0
2018-08-18T06:49:11.978Z,59.4
2018-08-18T06:50:12.666Z,58.9
2018-08-18T06:51:13.414Z,59.4
2018-08-18T06:52:14.123Z,59.5
2018-08-18T06:53:14.810Z,59.8
2018-08-18T06:54:15.508Z,60.2
2018-08-18T06:55:16.335Z,60.2
2018-08-18T06:56:16.867Z,59.9
2018-08-18T06:57:17.595Z,60.1
2018-08-18T06:58:18.287Z,59.9
2018-08-18T06:59:19.026Z,60.1
2018-08-18T07:00:19.737Z,59.9
2018-08-18T07:01:20.423Z,59.6
2018-08-18T07:02:21.151Z,59.6
2018-08-18T07:03:21.834Z,60.0
2018-08-18T07:04:22.521Z,59.9
2018-08-18T07:05:23.205Z,59.9
2018-08-18T07:06:23.893Z,60.4
2018-08-18T07:07:24.577Z,60.2
2018-08-18T07:08:25.262Z,60.1
2018-08-18T07:09:25.947Z,59.6
2018-08-18T07:10:26.668Z,59.6
2018-08-18T07:11:27.373Z,59.8
2018-08-18T07:12:28.047Z,59.6
2018-08-18T07:13:28.732Z,59.7
2018-08-18T07:14:29.418Z,59.4
2018-08-18T07:15:30.106Z,58.9
2018-08-18T07:16:30.788Z,58.9
2018-08-18T07:17:31.474Z,59.3
2018-08-18T07:18:32.158Z,58.7
2018-08-18T07:19:32.845Z,59.1
2018-08-18T07:20:33.574Z,59.3
2018-08-18T07:21:34.262Z,59.8
2018-08-18T07:22:34.992Z,59.5
2018-08-18T07:23:35.675Z,59.1
2018-08-18T07:24:36.362Z,58.9
2018-08-18T07:25:37.047Z,59.2
2018-08-18T07:26:37.777Z,58.7
2018-08-18T07:27:38.480Z,58.8
2018-08-18T07:28:39.213Z,58.1
2018-08-18T07:29:39.838Z,58.3
2018-08-18T07:30:40.522Z,57.8
2018-08-18T07:31:41.209Z,57.6
2018-08-18T07:32:41.895Z,57.5
2018-08-18T07:33:42.783Z,57.3
2018-08-18T07:34:43.471Z,57.5
2018-08-18T07:35:44.155Z,57.6
2018-08-18T07:36:44.842Z,57.6
2018-08-18T07:37:45.527Z,57.5
2018-08-18T07:38:46.213Z,57.5
2018-08-18T07:39:46.901Z,57.7
2018-08-18T07:40:47.588Z,57.8
2018-08-18T07:41:48.277Z,57.6
2018-08-18T07:42:48.962Z,57.3
2018-08-18T07:43:49.651Z,57.0
2018-08-18T07:44:50.337Z,56.5
2018-08-18T07:45:51.025Z,56.2
2018-08-18T07:46:51.713Z,55.9
2018-08-18T07:47:52.443Z,55.6
2018-08-18T07:48:53.129Z,55.2
2018-08-18T07:49:53.819Z,54.3
2018-08-18T07:50:54.502Z,54.4
2018-08-18T07:51:55.232Z,54.1
2018-08-18T07:52:55.920Z,54.2
2018-08-18T07:53:56.607Z,54.3
2018-08-18T07:54:57.309Z,53.9
2018-08-18T07:55:58.023Z,54.1
2018-08-18T07:56:58.711Z,54.1
2018-08-18T07:57:59.402Z,54.7
2018-08-18T07:59:00.127Z,54.6
2018-08-18T08:00:00.888Z,54.5
2018-08-18T08:01:01.500Z,54.7
2018-08-18T08:02:02.188Z,54.7
2018-08-18T08:03:02.879Z,54.8
2018-08-18T08:04:03.563Z,55.0
2018-08-18T08:05:04.323Z,54.7
2018-08-18T08:06:04.978Z,54.5
2018-08-18T08:07:05.665Z,54.9
2018-08-18T08:08:06.351Z,54.9
2018-08-18T08:09:07.038Z,55.0
2018-08-18T08:10:07.742Z,54.4
2018-08-18T08:11:08.455Z,54.2
2018-08-18T08:12:09.139Z,54.3
2018-08-18T08:13:09.870Z,54.1
2018-08-18T08:14:10.557Z,54.2
2018-08-18T08:15:11.242Z,53.4
2018-08-18T08:16:11.929Z,53.3
2018-08-18T08:17:12.616Z,52.9
2018-08-18T08:18:13.355Z,52.7
2018-08-18T08:19:13.990Z,52.7
2018-08-18T08:20:14.677Z,52.1
2018-08-18T08:21:15.367Z,52.0
2018-08-18T08:22:16.054Z,52.1
2018-08-18T08:23:16.738Z,51.9
2018-08-18T08:24:17.426Z,51.9
2018-08-18T08:25:18.113Z,51.9
2018-08-18T08:26:18.800Z,51.6
2018-08-18T08:27:19.597Z,52.0
2018-08-18T08:28:20.266Z,51.7
2018-08-18T08:29:20.952Z,51.6
2018-08-18T08:30:21.639Z,52.2
2018-08-18T08:31:22.325Z,52.3
2018-08-18T08:32:23.055Z,52.2
2018-08-18T08:33:23.744Z,52.3
2018-08-18T08:34:24.431Z,52.3
2018-08-18T08:35:25.118Z,52.5
2018-08-18T08:36:25.803Z,52.3
2018-08-18T08:37:26.491Z,52.5
2018-08-18T08:38:27.179Z,52.4
2018-08-18T08:39:27.864Z,53.0
2018-08-18T08:40:28.567Z,52.7
2018-08-18T08:41:29.284Z,53.1
2018-08-18T08:42:29.970Z,53.0
2018-08-18T08:43:30.656Z,53.4
2018-08-18T08:44:31.352Z,53.6
2018-08-18T08:45:32.074Z,53.4
2018-08-18T08:46:32.759Z,54.0
2018-08-18T08:47:33.452Z,53.7
2018-08-18T08:48:34.135Z,53.6
2018-08-18T08:49:34.822Z,53.5
2018-08-18T08:50:35.733Z,54.0
2018-08-18T08:51:36.442Z,54.2
2018-08-18T08:52:37.127Z,54.1
2018-08-18T08:53:37.815Z,54.3
2018-08-18T08:54:38.501Z,55.1
2018-08-18T08:55:39.186Z,55.0
2018-08-18T08:56:39.893Z,54.9
2018-08-18T08:57:40.642Z,55.2
2018-08-18T08:58:41.336Z,54.9
2018-08-18T08:59:42.023Z,55.2
2018-08-18T09:00:42.709Z,55.2
2018-08-18T09:01:43.394Z,55.0
2018-08-18T09:02:44.082Z,54.8
2018-08-18T09:03:44.768Z,54.8
2018-08-18T09:04:45.453Z,54.8
2018-08-18T09:05:46.141Z,54.7
2018-08-18T09:06:46.830Z,55.0
2018-08-18T09:07:47.556Z,54.8
2018-08-18T09:08:48.243Z,55.1
2018-08-18T09:09:48.929Z,55.2
2018-08-18T09:10:49.617Z,55.9
2018-08-18T09:11:50.301Z,55.2
2018-08-18T09:12:50.996Z,55.8
2018-08-18T09:13:51.716Z,55.3
2018-08-18T09:14:52.401Z,55.3
2018-08-18T09:15:53.092Z,54.4
2018-08-18T09:16:53.775Z,54.1
2018-08-18T09:17:54.461Z,54.1
2018-08-18T09:18:55.151Z,54.0
2018-08-18T09:19:55.879Z,54.2
2018-08-18T09:20:56.608Z,53.7
2018-08-18T09:21:57.295Z,53.6
2018-08-18T09:22:57.982Z,52.8
2018-08-18T09:23:58.668Z,52.9
2018-08-18T09:24:59.355Z,52.2
2018-08-18T09:26:00.067Z,51.9
2018-08-18T09:27:00.729Z,52.2
2018-08-18T09:28:01.416Z,52.3
2018-08-18T09:29:02.147Z,51.7
2018-08-18T09:30:02.877Z,52.0
2018-08-18T09:31:03.567Z,52.0
2018-08-18T09:32:04.253Z,51.8
2018-08-18T09:33:04.938Z,51.4
2018-08-18T09:34:05.629Z,50.7
2018-08-18T09:35:06.317Z,50.7
2018-08-18T09:36:07.005Z,50.0
2018-08-18T09:37:07.726Z,50.1
2018-08-18T09:38:08.430Z,49.8
2018-08-18T09:39:09.115Z,50.3
2018-08-18T09:40:09.802Z,49.9
2018-08-18T09:41:10.490Z,49.8
2018-08-18T09:42:11.181Z,50.2
2018-08-18T09:43:11.868Z,49.7
2018-08-18T09:44:12.558Z,49.8
2018-08-18T09:45:13.245Z,50.6
2018-08-18T09:46:14.030Z,49.9
2018-08-18T09:47:14.670Z,49.5
2018-08-18T09:48:15.358Z,49.2
2018-08-18T09:49:16.089Z,49.2
2018-08-18T09:50:16.778Z,48.6
2018-08-18T09:51:17.466Z,48.1
2018-08-18T09:52:18.155Z,48.3
2018-08-18T09:53:18.841Z,47.8
2018-08-18T09:54:19.530Z,47.1
2018-08-18T09:55:20.220Z,47.0
2018-08-18T09:56:20.907Z,47.1
2018-08-18T09:57:21.594Z,46.8
2018-08-18T09:58:22.324Z,46.7
2018-08-18T09:59:23.111Z,46.7
2018-08-18T10:00:23.704Z,46.4
2018-08-18T10:01:24.394Z,46.1
2018-08-18T10:02:25.083Z,46.1
2018-08-18T10:03:25.772Z,46.0
2018-08-18T10:04:26.460Z,45.7
2018-08-18T10:05:27.147Z,45.7
2018-08-18T10:06:27.944Z,45.4
2018-08-18T10:07:28.527Z,45.0
2018-08-18T10:08:29.216Z,44.5
2018-08-18T10:09:29.905Z,44.8
2018-08-18T10:10:30.595Z,45.0
2018-08-18T10:11:31.282Z,44.8
2018-08-18T10:12:31.971Z,45.6
2018-08-18T10:13:32.692Z,45.2
2018-08-18T10:14:33.396Z,46.1
2018-08-18T10:15:34.124Z,46.0
2018-08-18T10:16:34.812Z,46.1
2018-08-18T10:17:35.519Z,45.8
2018-08-18T10:18:36.235Z,45.3
2018-08-18T10:19:36.922Z,45.5
2018-08-18T10:20:37.613Z,45.3
2018-08-18T10:21:38.301Z,45.6
2018-08-18T10:22:38.988Z,46.0
2018-08-18T10:23:39.680Z,46.0
2018-08-18T10:24:40.373Z,46.1
2018-08-18T10:25:41.107Z,46.1
2018-08-18T10:26:41.796Z,46.5
2018-08-18T10:27:42.485Z,45.7
2018-08-18T10:28:43.177Z,45.6
2018-08-18T10:29:43.866Z,45.5
2018-08-18T10:30:44.553Z,45.6
2018-08-18T10:31:45.242Z,45.9
2018-08-18T10:32:45.932Z,46.1
2018-08-18T10:33:46.622Z,46.0
2018-08-18T10:34:47.314Z,46.1
2018-08-18T10:35:48.043Z,45.6
2018-08-18T10:36:48.733Z,45.3
2018-08-18T10:37:49.438Z,45.5
2018-08-18T10:38:50.113Z,45.6
2018-08-18T10:39:50.804Z,45.4
2018-08-18T10:40:51.534Z,45.2
2018-08-18T10:41:52.225Z,44.4
2018-08-18T10:42:52.914Z,44.6
2018-08-18T10:43:53.601Z,44.6
2018-08-18T10:44:54.293Z,44.2
2018-08-18T10:45:54.990Z,44.5
2018-08-18T10:46:55.739Z,45.1
2018-08-18T10:47:56.447Z,44.2
2018-08-18T10:48:57.156Z,44.1
2018-08-18T10:49:58.221Z,44.2
2018-08-18T10:50:58.847Z,43.9
2018-08-18T10:51:59.537Z,43.6
2018-08-18T10:53:00.226Z,43.8
2018-08-18T10:54:00.915Z,44.1
2018-08-18T10:55:01.657Z,44.2
2018-08-18T10:56:02.383Z,45.4
2018-08-18T10:57:03.114Z,45.4
2018-08-18T10:58:03.802Z,45.1
2018-08-18T10:59:04.494Z,45.2
2018-08-18T11:00:05.182Z,44.1
2018-08-18T11:01:05.876Z,44.3
2018-08-18T11:02:06.560Z,44.4
2018-08-18T11:03:07.292Z,44.7
2018-08-18T11:04:07.938Z,44.2
2018-08-18T11:05:08.668Z,44.0
2018-08-18T11:06:09.376Z,44.4
2018-08-18T11:07:10.090Z,45.2
2018-08-18T11:08:10.777Z,45.4
2018-08-18T11:09:11.467Z,45.3
2018-08-18T11:10:12.153Z,46.1
2018-08-18T11:11:12.842Z,45.8
2018-08-18T11:12:13.530Z,46.2
2018-08-18T11:13:14.218Z,46.7
2018-08-18T11:14:14.906Z,46.5
2018-08-18T11:15:15.595Z,46.5
2018-08-18T11:16:16.285Z,46.4
2018-08-18T11:17:16.972Z,46.2
2018-08-18T11:18:17.664Z,46.2
2018-08-18T11:19:18.393Z,46.1
2018-08-18T11:20:19.112Z,46.2
2018-08-18T11:21:19.813Z,45.9
2018-08-18T11:22:20.504Z,45.9
2018-08-18T11:23:21.193Z,45.4
2018-08-18T11:24:21.881Z,45.5
2018-08-18T11:25:22.569Z,45.4
2018-08-18T11:26:23.257Z,45.4
2018-08-18T11:27:23.947Z,45.2
2018-08-18T11:28:24.702Z,45.2
2018-08-18T11:29:25.333Z,45.3
2018-08-18T11:30:26.058Z,45.4
2018-08-18T11:31:26.777Z,45.0
2018-08-18T11:32:27.478Z,44.4
2018-08-18T11:33:28.168Z,44.4
2018-08-18T11:34:28.858Z,44.1
2018-08-18T11:35:29.547Z,44.1
2018-08-18T11:36:30.234Z,44.3
2018-08-18T11:37:30.922Z,44.3
2018-08-18T11:38:31.611Z,44.1
2018-08-18T11:39:32.343Z,43.8
2018-08-18T11:40:33.031Z,44.1
2018-08-18T11:41:33.816Z,43.7
2018-08-18T11:42:34.446Z,43.4
2018-08-18T11:43:35.135Z,43.8
2018-08-18T11:44:35.824Z,43.2
2018-08-18T11:45:36.513Z,43.3
2018-08-18T11:46:37.201Z,44.3
2018-08-18T11:47:37.892Z,44.1
2018-08-18T11:48:38.579Z,44.3
2018-08-18T11:49:39.266Z,44.2
2018-08-18T11:50:39.956Z,44.2
2018-08-18T11:51:40.645Z,44.0
2018-08-18T11:52:41.337Z,44.1
2018-08-18T11:53:42.024Z,44.2
2018-08-18T11:54:42.715Z,44.2
2018-08-18T11:55:43.405Z,43.9
2018-08-18T11:56:44.093Z,44.2
2018-08-18T11:57:44.784Z,43.8
2018-08-18T11:58:45.475Z,44.0
2018-08-18T11:59:46.165Z,44.3
2018-08-18T12:00:46.854Z,43.9
2018-08-18T12:01:47.557Z,44.0
2018-08-18T12:02:48.235Z,43.9
2018-08-18T12:03:48.922Z,43.4
2018-08-18T12:04:49.612Z,42.8
2018-08-18T12:05:50.302Z,42.9
2018-08-18T12:06:50.993Z,42.6
2018-08-18T12:07:51.682Z,43.3
2018-08-18T12:08:52.371Z,43.3
2018-08-18T12:09:53.062Z,43.2
2018-08-18T12:10:53.879Z,43.4
2018-08-18T12:11:54.437Z,43.5
2018-08-18T12:12:55.127Z,42.8
2018-08-18T12:13:55.863Z,42.5
2018-08-18T12:14:56.547Z,42.6
2018-08-18T12:15:57.235Z,42.6
2018-08-18T12:16:57.924Z,42.4
2018-08-18T12:17:58.613Z,42.6
2018-08-18T12:18:59.301Z,42.7
2018-08-18T12:19:59.990Z,42.4
2018-08-18T12:21:00.684Z,42.8
2018-08-18T12:22:01.369Z,43.2
2018-08-18T12:23:02.056Z,43.5
2018-08-18T12:24:02.745Z,43.1
2018-08-18T12:25:03.432Z,43.6
2018-08-18T12:26:04.122Z,42.5
2018-08-18T12:27:04.812Z,42.8
2018-08-18T12:28:05.524Z,42.9
2018-08-18T12:29:06.233Z,42.7
2018-08-18T12:30:07.050Z,42.9
2018-08-18T12:31:07.607Z,42.6
2018-08-18T12:32:08.295Z,42.8
2018-08-18T12:33:08.985Z,42.7
2018-08-18T12:34:09.682Z,42.4
2018-08-18T12:35:10.407Z,42.9
2018-08-18T12:36:11.220Z,43.5
2018-08-18T12:37:11.850Z,44.1
2018-08-18T12:38:12.505Z,44.6
2018-08-18T12:39:13.199Z,45.2
2018-08-18T12:40:13.946Z,45.5
2018-08-18T12:41:14.662Z,45.3
2018-08-18T12:42:15.392Z,45.8
2018-08-18T12:43:16.080Z,46.0
2018-08-18T12:44:16.771Z,46.4
2018-08-18T12:45:17.532Z,46.1
2018-08-18T12:46:18.238Z,46.1
2018-08-18T12:47:18.919Z,46.2
2018-08-18T12:48:19.605Z,46.5
2018-08-18T12:49:20.342Z,47.0
2018-08-18T12:50:21.071Z,47.0
2018-08-18T12:51:21.798Z,46.9
2018-08-18T12:52:22.485Z,47.1
2018-08-18T12:53:23.175Z,47.6
2018-08-18T12:54:23.860Z,47.1
2018-08-18T12:55:24.548Z,47.6
2018-08-18T12:56:25.236Z,48.4
2018-08-18T12:57:25.923Z,48.1
2018-08-18T12:58:26.686Z,48.3
2018-08-18T12:59:27.300Z,48.3
2018-08-18T13:00:27.987Z,48.3
2018-08-18T13:01:28.673Z,48.1
2018-08-18T13:02:29.362Z,48.9
2018-08-18T13:03:30.050Z,48.9
2018-08-18T13:04:30.902Z,49.3
2018-08-18T13:05:31.421Z,48.8
2018-08-18T13:06:32.114Z,49.1
2018-08-18T13:07:32.802Z,49.6
2018-08-18T13:08:33.525Z,49.2
2018-08-18T13:09:34.208Z,48.9
2018-08-18T13:10:34.895Z,49.2
2018-08-18T13:11:35.643Z,48.8
2018-08-18T13:12:36.269Z,48.8
2018-08-18T13:13:36.955Z,48.7
2018-08-18T13:14:37.639Z,48.5
2018-08-18T13:15:38.392Z,48.2
2018-08-18T13:16:39.099Z,48.2
2018-08-18T13:17:39.852Z,48.0
2018-08-18T13:18:40.597Z,47.6
2018-08-18T13:19:41.244Z,47.7
2018-08-18T13:20:41.949Z,46.8
2018-08-18T13:21:42.661Z,46.1
2018-08-18T13:22:43.347Z,46.5
2018-08-18T13:23:44.034Z,45.9
2018-08-18T13:24:44.720Z,46.0
2018-08-18T13:25:45.405Z,45.6
2018-08-18T13:26:46.137Z,45.6
2018-08-18T13:27:46.866Z,45.5
2018-08-18T13:28:47.552Z,45.3